createdAt,value
2023-03-21T00:00:04.516Z,99.11
2023-03-21T00:01:04.511Z,99.31
2023-03-21T00:02:04.578Z,99.88
2023-03-21T00:03:04.506Z,99.99
2023-03-21T00:04:04.582Z,99.99
2023-03-21T00:05:15.084Z,99.99
2023-03-21T00:06:04.518Z,99.47
2023-03-21T00:07:04.498Z,99.99
2023-03-21T00:08:04.500Z,99.31
2023-03-21T00:09:04.496Z,99.27
2023-03-21T00:10:14.280Z,99.27
2023-03-21T00:11:04.493Z,99.31
2023-03-21T00:12:04.515Z,99.31
2023-03-21T00:13:04.484Z,99.31
2023-03-21T00:14:04.489Z,99.01
2023-03-21T00:15:04.488Z,99.31
2023-03-21T00:16:08.837Z,99.31
2023-03-21T00:17:04.483Z,99.52
2023-03-21T00:18:04.476Z,99.11
2023-03-21T00:19:04.475Z,99.21
2023-03-21T00:20:04.482Z,99.36
2023-03-21T00:21:37.641Z,99.21
2023-03-21T00:22:07.868Z,99.01
2023-03-21T00:23:04.476Z,99.82
2023-03-21T00:24:04.474Z,99.92
2023-03-21T00:25:04.472Z,99.92
2023-03-21T00:26:04.473Z,99.21
2023-03-21T00:27:26.906Z,99.11
2023-03-21T00:29:04.460Z,99.36
2023-03-21T00:30:04.466Z,99.99
2023-03-21T00:31:04.460Z,99.72
2023-03-21T00:32:04.457Z,99.31
2023-03-21T00:33:19.642Z,99.11
2023-03-21T00:34:04.455Z,99.47
2023-03-21T00:35:29.532Z,99.57
2023-03-21T00:36:12.374Z,99.62
2023-03-21T00:37:04.451Z,99.72
2023-03-21T00:38:04.453Z,99.99
2023-03-21T00:39:04.444Z,99.99
2023-03-21T00:40:06.887Z,99.27
2023-03-21T00:41:11.019Z,99.99
2023-03-21T00:42:04.445Z,99.88
2023-03-21T00:43:04.445Z,99.31
2023-03-21T00:44:04.465Z,99.21
2023-03-21T00:45:04.436Z,99.52
2023-03-21T00:46:04.433Z,99.21
2023-03-21T00:47:07.362Z,99.72
2023-03-21T00:48:04.555Z,99.62
2023-03-21T00:49:04.434Z,99.62
2023-03-21T00:50:04.430Z,99.52
2023-03-21T00:51:04.425Z,99.99
2023-03-21T00:52:15.764Z,99.52
2023-03-21T00:53:04.420Z,99.99
2023-03-21T00:54:04.418Z,99.99
2023-03-21T00:55:04.417Z,99.99
2023-03-21T00:56:04.418Z,99.21
2023-03-21T00:57:04.423Z,99.87
2023-03-21T00:58:04.414Z,99.52
2023-03-21T00:59:04.424Z,99.52
2023-03-21T01:00:04.437Z,99.99
2023-03-21T01:01:04.547Z,99.99
2023-03-21T01:02:04.474Z,99.72
2023-03-21T01:03:17.723Z,99.31
2023-03-21T01:04:04.406Z,99.92
2023-03-21T01:05:04.411Z,99.21
2023-03-21T01:06:04.415Z,99.99
2023-03-21T01:07:04.404Z,99.99
2023-03-21T01:08:17.070Z,99.62
2023-03-21T01:09:04.395Z,99.99
2023-03-21T01:10:04.419Z,99.99
2023-03-21T01:11:04.398Z,99.99
2023-03-21T01:12:04.391Z,99.99
2023-03-21T01:13:04.384Z,99.99
2023-03-21T01:14:20.893Z,99.99
2023-03-21T01:15:04.381Z,99.99
2023-03-21T01:16:04.432Z,99.99
2023-03-21T01:17:04.379Z,99.99
2023-03-21T01:18:04.379Z,99.97
2023-03-21T01:19:06.915Z,99.82
2023-03-21T01:20:04.379Z,99.99
2023-03-21T01:21:04.370Z,99.99
2023-03-21T01:22:04.373Z,99.99
2023-03-21T01:23:04.371Z,99.99
2023-03-21T01:24:04.371Z,99.99
2023-03-21T01:25:21.061Z,99.99
2023-03-21T01:26:04.386Z,99.99
2023-03-21T01:27:04.368Z,99.99
2023-03-21T01:28:04.361Z,99.99
2023-03-21T01:29:04.358Z,99.99
2023-03-21T01:30:11.155Z,99.99
2023-03-21T01:31:04.357Z,99.99
2023-03-21T01:32:04.502Z,99.99
2023-03-21T01:33:04.351Z,99.99
2023-03-21T01:34:04.353Z,99.99
2023-03-21T01:35:04.388Z,99.99
2023-03-21T01:36:12.783Z,99.99
2023-03-21T01:37:04.447Z,99.99
2023-03-21T01:38:04.348Z,99.99
2023-03-21T01:39:04.345Z,99.99
2023-03-21T01:40:04.342Z,99.99
2023-03-21T01:41:17.111Z,99.99
2023-03-21T01:42:04.340Z,99.99
2023-03-21T01:43:04.333Z,99.99
2023-03-21T01:44:04.357Z,99.99
2023-03-21T01:45:04.330Z,99.99
2023-03-21T01:46:04.372Z,99.99
2023-03-21T01:47:11.124Z,99.99
2023-03-21T01:48:04.366Z,99.99
2023-03-21T01:49:04.327Z,99.99
2023-03-21T01:50:04.332Z,99.99
2023-03-21T01:51:04.319Z,99.99
2023-03-21T01:52:12.220Z,99.99
2023-03-21T01:53:04.318Z,99.99
2023-03-21T01:54:04.328Z,99.99
2023-03-21T01:55:04.319Z,99.99
2023-03-21T01:56:04.317Z,99.99
2023-03-21T01:57:04.309Z,99.99
2023-03-21T01:58:07.100Z,99.99
2023-03-21T01:59:04.310Z,99.99
2023-03-21T02:00:04.306Z,99.99
2023-03-21T02:01:04.427Z,99.99
2023-03-21T02:02:04.312Z,99.99
2023-03-21T02:03:13.838Z,99.99
2023-03-21T02:04:04.371Z,99.99
2023-03-21T02:05:04.296Z,99.99
2023-03-21T02:06:04.299Z,99.99
2023-03-21T02:07:04.301Z,99.99
2023-03-21T02:08:04.294Z,99.99
2023-03-21T02:09:04.297Z,99.99
2023-03-21T02:10:04.291Z,99.99
2023-03-21T02:11:04.289Z,99.99
2023-03-21T02:12:04.292Z,99.99
2023-03-21T02:13:04.284Z,99.99
2023-03-21T02:14:07.090Z,99.99
2023-03-21T02:15:04.283Z,99.99
2023-03-21T02:16:04.282Z,99.99
2023-03-21T02:17:04.279Z,99.99
2023-03-21T02:18:04.276Z,99.99
2023-03-21T02:19:04.272Z,99.99
2023-03-21T02:20:04.293Z,99.99
2023-03-21T02:21:04.272Z,99.99
2023-03-21T02:22:04.286Z,99.99
2023-03-21T02:23:04.264Z,99.99
2023-03-21T02:24:04.267Z,99.99
2023-03-21T02:25:10.646Z,99.99
2023-03-21T02:26:04.267Z,99.99
2023-03-21T02:27:04.886Z,99.99
2023-03-21T02:28:04.263Z,99.99
2023-03-21T02:29:04.263Z,99.99
2023-03-21T02:30:04.259Z,99.99
2023-03-21T02:31:04.304Z,99.99
2023-03-21T02:32:16.446Z,99.99
2023-03-21T02:33:04.258Z,99.99
2023-03-21T02:34:04.268Z,99.99
2023-03-21T02:35:04.245Z,99.99
2023-03-21T02:36:13.571Z,99.99
2023-03-21T02:37:04.251Z,99.99
2023-03-21T02:38:04.250Z,99.99
2023-03-21T02:39:04.243Z,99.99
2023-03-21T02:40:04.244Z,99.99
2023-03-21T02:41:10.107Z,99.99
2023-03-21T02:42:04.237Z,99.99
2023-03-21T02:43:05.634Z,99.99
2023-03-21T02:44:04.231Z,99.99
2023-03-21T02:45:04.250Z,99.99
2023-03-21T02:46:04.274Z,99.99
2023-03-21T02:47:06.504Z,99.99
2023-03-21T02:48:04.345Z,99.99
2023-03-21T02:49:04.300Z,99.99
2023-03-21T02:50:04.219Z,99.99
2023-03-21T02:51:04.220Z,99.99
2023-03-21T02:52:14.492Z,99.99
2023-03-21T02:53:04.226Z,99.99
2023-03-21T02:54:26.499Z,99.99
2023-03-21T02:55:04.224Z,99.99
2023-03-21T02:56:04.213Z,99.99
2023-03-21T02:57:04.216Z,99.99
2023-03-21T02:58:12.696Z,99.99
2023-03-21T02:59:04.210Z,99.99
2023-03-21T03:00:15.457Z,99.99
2023-03-21T03:01:04.305Z,99.99
2023-03-21T03:02:04.205Z,99.99
2023-03-21T03:03:09.911Z,99.99
2023-03-21T03:04:04.246Z,99.99
2023-03-21T03:05:11.575Z,99.99
2023-03-21T03:06:04.195Z,99.99
2023-03-21T03:07:04.198Z,99.99
2023-03-21T03:08:04.220Z,99.99
2023-03-21T03:09:04.195Z,99.99
2023-03-21T03:10:04.191Z,99.99
2023-03-21T03:11:04.196Z,99.99
2023-03-21T03:12:04.185Z,99.99
2023-03-21T03:13:04.222Z,99.99
2023-03-21T03:14:21.056Z,99.99
2023-03-21T03:15:04.551Z,99.99
2023-03-21T03:16:04.190Z,99.99
2023-03-21T03:17:04.181Z,99.99
2023-03-21T03:18:04.185Z,99.99
2023-03-21T03:19:04.186Z,99.99
2023-03-21T03:20:15.160Z,99.99
2023-03-21T03:21:04.171Z,99.99
2023-03-21T03:22:04.168Z,99.99
2023-03-21T03:23:04.174Z,99.99
2023-03-21T03:24:04.190Z,99.99
2023-03-21T03:25:17.751Z,99.99
2023-03-21T03:26:04.192Z,99.99
2023-03-21T03:27:04.166Z,99.99
2023-03-21T03:28:04.156Z,99.99
2023-03-21T03:29:04.164Z,99.99
2023-03-21T03:30:04.153Z,99.99
2023-03-21T03:31:09.919Z,99.99
2023-03-21T03:32:04.248Z,99.99
2023-03-21T03:33:04.156Z,99.99
2023-03-21T03:34:04.161Z,99.99
2023-03-21T03:35:04.143Z,99.99
2023-03-21T03:36:06.666Z,99.99
2023-03-21T03:37:04.138Z,99.99
2023-03-21T03:38:04.135Z,99.99
2023-03-21T03:39:04.141Z,99.99
2023-03-21T03:40:04.156Z,99.99
2023-03-21T03:41:04.134Z,99.99
2023-03-21T03:42:15.314Z,99.99
2023-03-21T03:43:04.131Z,99.99
2023-03-21T03:44:04.124Z,99.99
2023-03-21T03:45:04.145Z,99.99
2023-03-21T03:46:04.127Z,99.99
2023-03-21T03:47:04.123Z,99.99
2023-03-21T03:48:04.179Z,99.99
2023-03-21T03:49:04.119Z,99.99
2023-03-21T03:50:04.114Z,99.99
2023-03-21T03:51:04.117Z,99.99
2023-03-21T03:52:04.109Z,99.99
2023-03-21T03:53:09.922Z,99.99
2023-03-21T03:54:04.113Z,99.99
2023-03-21T03:55:04.102Z,99.99
2023-03-21T03:56:04.126Z,99.99
2023-03-21T03:57:04.101Z,99.99
2023-03-21T03:58:06.436Z,99.99
2023-03-21T03:59:04.099Z,99.99
2023-03-21T04:00:04.098Z,99.99
2023-03-21T04:01:04.100Z,99.99
2023-03-21T04:02:04.152Z,99.99
2023-03-21T04:03:04.249Z,99.99
2023-03-21T04:04:12.951Z,99.99
2023-03-21T04:05:04.090Z,99.99
2023-03-21T04:06:04.087Z,99.99
2023-03-21T04:07:04.101Z,99.99
2023-03-21T04:08:04.091Z,99.99
2023-03-21T04:09:13.670Z,99.99
2023-03-21T04:10:04.079Z,99.99
2023-03-21T04:11:04.084Z,99.99
2023-03-21T04:12:04.089Z,99.99
2023-03-21T04:13:04.071Z,99.99
2023-03-21T04:14:04.071Z,99.99
2023-03-21T04:15:10.785Z,99.99
2023-03-21T04:16:04.112Z,99.99
2023-03-21T04:17:04.066Z,99.99
2023-03-21T04:18:04.061Z,99.99
2023-03-21T04:19:04.070Z,99.99
2023-03-21T04:20:11.397Z,99.99
2023-03-21T04:21:04.063Z,99.99
2023-03-21T04:22:04.067Z,99.99
2023-03-21T04:23:04.072Z,99.99
2023-03-21T04:24:04.056Z,99.99
2023-03-21T04:25:04.052Z,99.99
2023-03-21T04:26:04.066Z,99.99
2023-03-21T04:27:04.052Z,99.99
2023-03-21T04:28:04.065Z,99.99
2023-03-21T04:29:04.048Z,99.99
2023-03-21T04:30:04.040Z,99.99
2023-03-21T04:31:11.101Z,99.99
2023-03-21T04:32:04.100Z,99.99
2023-03-21T04:33:04.038Z,99.99
2023-03-21T04:34:04.032Z,99.99
2023-03-21T04:35:04.036Z,99.99
2023-03-21T04:36:04.051Z,99.99
2023-03-21T04:37:04.031Z,99.99
2023-03-21T04:38:04.032Z,99.99
2023-03-21T04:39:04.034Z,99.99
2023-03-21T04:40:04.017Z,99.99
2023-03-21T04:41:04.023Z,99.99
2023-03-21T04:42:04.018Z,99.99
2023-03-21T04:43:04.019Z,99.99
2023-03-21T04:44:04.039Z,99.99
2023-03-21T04:45:04.017Z,99.99
2023-03-21T04:46:04.040Z,99.99
2023-03-21T04:47:04.011Z,99.99
2023-03-21T04:48:04.060Z,99.99
2023-03-21T04:49:04.005Z,99.99
2023-03-21T04:50:04.000Z,99.99
2023-03-21T04:51:04.005Z,99.99
2023-03-21T04:52:03.999Z,99.99
2023-03-21T04:53:03.996Z,99.99
2023-03-21T04:54:03.993Z,99.99
2023-03-21T04:55:03.998Z,99.99
2023-03-21T04:56:03.989Z,99.99
2023-03-21T04:57:03.990Z,99.99
2023-03-21T04:58:03.989Z,99.99
2023-03-21T04:59:04.001Z,99.99
2023-03-21T05:00:04.006Z,99.99
2023-03-21T05:01:04.081Z,99.99
2023-03-21T05:02:03.977Z,99.99
2023-03-21T05:03:03.976Z,99.99
2023-03-21T05:04:04.054Z,99.99
2023-03-21T05:05:03.974Z,99.99
2023-03-21T05:06:03.966Z,99.99
2023-03-21T05:07:03.966Z,99.99
2023-03-21T05:08:03.969Z,99.99
2023-03-21T05:09:03.963Z,99.99
2023-03-21T05:10:03.958Z,99.99
2023-03-21T05:11:03.972Z,99.99
2023-03-21T05:12:03.950Z,99.99
2023-03-21T05:13:03.967Z,99.99
2023-03-21T05:14:03.949Z,99.99
2023-03-21T05:15:03.952Z,99.99
2023-03-21T05:16:03.968Z,99.99
2023-03-21T05:17:04.043Z,99.99
2023-03-21T05:18:03.945Z,99.99
2023-03-21T05:19:04.038Z,99.99
2023-03-21T05:20:03.951Z,99.99
2023-03-21T05:21:03.943Z,99.99
2023-03-21T05:22:03.937Z,99.99
2023-03-21T05:23:03.938Z,99.99
2023-03-21T05:24:03.930Z,99.99
2023-03-21T05:25:03.932Z,99.99
2023-03-21T05:26:03.930Z,99.99
2023-03-21T05:27:03.934Z,99.99
2023-03-21T05:28:03.925Z,99.99
2023-03-21T05:29:03.932Z,99.99
2023-03-21T05:30:03.921Z,99.99
2023-03-21T05:31:03.963Z,99.99
2023-03-21T05:32:03.952Z,99.99
2023-03-21T05:33:03.920Z,99.99
2023-03-21T05:34:03.913Z,99.99
2023-03-21T05:35:03.912Z,99.99
2023-03-21T05:36:03.990Z,99.99
2023-03-21T05:37:03.917Z,99.99
2023-03-21T05:38:03.908Z,99.99
2023-03-21T05:39:03.926Z,99.99
2023-03-21T05:40:03.903Z,99.99
2023-03-21T05:41:03.906Z,99.99
2023-03-21T05:42:03.895Z,99.99
2023-03-21T05:43:03.900Z,99.99
2023-03-21T05:44:03.898Z,99.99
2023-03-21T05:45:03.919Z,99.99
2023-03-21T05:46:03.926Z,99.99
2023-03-21T05:47:03.891Z,99.99
2023-03-21T05:48:03.934Z,99.99
2023-03-21T05:49:03.890Z,99.99
2023-03-21T05:50:03.887Z,99.99
2023-03-21T05:51:03.889Z,99.99
2023-03-21T05:52:03.899Z,99.99
2023-03-21T05:53:03.881Z,99.99
2023-03-21T05:54:03.877Z,99.99
2023-03-21T05:55:03.894Z,99.99
2023-03-21T05:56:03.875Z,99.99
2023-03-21T05:57:03.877Z,99.99
2023-03-21T05:58:03.872Z,99.99
2023-03-21T05:59:03.875Z,99.99
2023-03-21T06:00:03.880Z,99.99
2023-03-21T06:01:03.867Z,99.99
2023-03-21T06:02:03.863Z,99.99
2023-03-21T06:03:03.920Z,99.99
2023-03-21T06:04:03.941Z,99.99
2023-03-21T06:05:03.858Z,99.99
2023-03-21T06:06:03.852Z,99.99
2023-03-21T06:07:03.853Z,99.99
2023-03-21T06:08:03.860Z,99.99
2023-03-21T06:09:03.855Z,99.99
2023-03-21T06:10:03.847Z,99.99
2023-03-21T06:11:03.878Z,99.99
2023-03-21T06:12:03.860Z,99.99
2023-03-21T06:13:03.845Z,99.99
2023-03-21T06:14:03.839Z,99.99
2023-03-21T06:15:03.840Z,99.99
2023-03-21T06:16:03.879Z,99.99
2023-03-21T06:17:03.840Z,99.99
2023-03-21T06:18:03.837Z,99.99
2023-03-21T06:19:03.841Z,99.99
2023-03-21T06:20:03.861Z,99.99
2023-03-21T06:21:03.844Z,99.99
2023-03-21T06:22:03.824Z,99.99
2023-03-21T06:23:03.851Z,99.99
2023-03-21T06:24:03.838Z,99.99
2023-03-21T06:25:03.825Z,99.99
2023-03-21T06:26:03.817Z,99.99
2023-03-21T06:27:04.178Z,99.99
2023-03-21T06:28:03.813Z,99.99
2023-03-21T06:29:03.818Z,99.99
2023-03-21T06:30:03.817Z,99.99
2023-03-21T06:31:03.885Z,99.99
2023-03-21T06:32:03.808Z,99.99
2023-03-21T06:33:03.809Z,99.99
2023-03-21T06:34:03.805Z,99.99
2023-03-21T06:35:03.802Z,99.99
2023-03-21T06:36:03.866Z,99.99
2023-03-21T06:37:03.800Z,99.99
2023-03-21T06:38:03.804Z,99.99
2023-03-21T06:39:03.799Z,99.99
2023-03-21T06:40:03.791Z,99.99
2023-03-21T06:41:03.797Z,99.99
2023-03-21T06:42:03.783Z,99.99
2023-03-21T06:43:03.790Z,99.99
2023-03-21T06:44:03.781Z,99.99
2023-03-21T06:45:03.785Z,99.99
2023-03-21T06:46:03.790Z,99.99
2023-03-21T06:47:03.855Z,99.99
2023-03-21T06:48:03.828Z,99.99
2023-03-21T06:49:03.778Z,99.99
2023-03-21T06:50:03.773Z,99.99
2023-03-21T06:51:03.770Z,99.99
2023-03-21T06:52:03.810Z,99.99
2023-03-21T06:53:03.788Z,99.99
2023-03-21T06:54:03.766Z,99.99
2023-03-21T06:55:03.769Z,99.99
2023-03-21T06:56:03.765Z,99.99
2023-03-21T06:57:03.762Z,99.99
2023-03-21T06:58:03.764Z,99.99
2023-03-21T06:59:03.755Z,99.99
2023-03-21T07:00:03.756Z,99.99
2023-03-21T07:01:03.806Z,99.99
2023-03-21T07:02:03.760Z,99.99
2023-03-21T07:03:03.762Z,99.99
2023-03-21T07:04:03.747Z,99.99
2023-03-21T07:05:03.757Z,99.99
2023-03-21T07:06:03.773Z,99.99
2023-03-21T07:07:03.745Z,99.99
2023-03-21T07:08:03.771Z,99.99
2023-03-21T07:09:03.741Z,99.99
2023-03-21T07:10:03.747Z,99.99
2023-03-21T07:11:03.741Z,99.99
2023-03-21T07:12:03.745Z,99.99
2023-03-21T07:13:03.728Z,99.99
2023-03-21T07:14:03.731Z,99.99
2023-03-21T07:15:03.726Z,99.99
2023-03-21T07:16:03.822Z,99.99
2023-03-21T07:17:03.730Z,99.99
2023-03-21T07:18:03.724Z,99.99
2023-03-21T07:19:03.719Z,99.99
2023-03-21T07:20:03.726Z,99.99
2023-03-21T07:21:03.719Z,99.99
2023-03-21T07:22:03.718Z,99.99
2023-03-21T07:23:03.722Z,99.99
2023-03-21T07:24:03.737Z,99.99
2023-03-21T07:25:05.517Z,99.99
2023-03-21T07:26:03.732Z,99.99
2023-03-21T07:27:03.718Z,99.99
2023-03-21T07:28:03.720Z,99.99
2023-03-21T07:29:03.707Z,99.99
2023-03-21T07:30:03.713Z,99.99
2023-03-21T07:31:03.702Z,99.99
2023-03-21T07:32:03.735Z,99.99
2023-03-21T07:33:03.706Z,99.99
2023-03-21T07:34:03.702Z,99.99
2023-03-21T07:35:03.700Z,99.99
2023-03-21T07:36:03.783Z,99.99
2023-03-21T07:37:03.692Z,99.99
2023-03-21T07:38:03.695Z,99.99
2023-03-21T07:39:03.688Z,99.99
2023-03-21T07:40:03.715Z,99.99
2023-03-21T07:41:03.685Z,99.99
2023-03-21T07:42:03.703Z,99.99
2023-03-21T07:43:03.709Z,99.99
2023-03-21T07:44:03.718Z,99.99
2023-03-21T07:45:03.674Z,99.99
2023-03-21T07:46:03.739Z,99.99
2023-03-21T07:47:03.672Z,99.99
2023-03-21T07:48:03.702Z,99.99
2023-03-21T07:49:03.669Z,99.99
2023-03-21T07:50:03.672Z,99.99
2023-03-21T07:51:03.667Z,99.99
2023-03-21T07:52:04.855Z,99.99
2023-03-21T07:53:03.664Z,99.99
2023-03-21T07:54:03.666Z,99.99
2023-03-21T07:55:03.659Z,99.99
2023-03-21T07:56:03.689Z,99.99
2023-03-21T07:57:03.660Z,99.99
2023-03-21T07:58:03.665Z,99.99
2023-03-21T07:59:03.652Z,99.99
2023-03-21T08:00:03.670Z,99.99
2023-03-21T08:01:03.656Z,99.99
2023-03-21T08:02:03.689Z,99.99
2023-03-21T08:03:03.709Z,99.99
2023-03-21T08:04:03.663Z,99.99
2023-03-21T08:05:03.643Z,99.99
2023-03-21T08:06:03.650Z,99.99
2023-03-21T08:07:03.642Z,99.99
2023-03-21T08:08:03.638Z,99.99
2023-03-21T08:09:03.660Z,99.99
2023-03-21T08:10:03.657Z,99.99
2023-03-21T08:11:03.634Z,99.99
2023-03-21T08:12:03.697Z,99.99
2023-03-21T08:13:03.631Z,99.99
2023-03-21T08:14:03.635Z,99.99
2023-03-21T08:15:03.621Z,99.99
2023-03-21T08:16:03.628Z,99.99
2023-03-21T08:17:03.710Z,99.99
2023-03-21T08:18:03.627Z,99.99
2023-03-21T08:19:03.615Z,99.99
2023-03-21T08:20:03.626Z,99.99
2023-03-21T08:21:03.627Z,99.99
2023-03-21T08:22:03.616Z,99.99
2023-03-21T08:23:03.625Z,99.99
2023-03-21T08:24:03.619Z,99.99
2023-03-21T08:25:03.611Z,99.99
2023-03-21T08:26:03.609Z,99.99
2023-03-21T08:27:03.604Z,99.99
2023-03-21T08:28:03.627Z,99.99
2023-03-21T08:29:03.608Z,99.99
2023-03-21T08:30:03.606Z,99.99
2023-03-21T08:31:03.756Z,99.99
2023-03-21T08:32:03.646Z,99.99
2023-03-21T08:33:03.594Z,99.99
2023-03-21T08:34:03.610Z,99.99
2023-03-21T08:35:03.600Z,99.99
2023-03-21T08:36:03.641Z,99.99
2023-03-21T08:37:03.590Z,99.99
2023-03-21T08:38:03.600Z,99.99
2023-03-21T08:39:03.593Z,99.99
2023-03-21T08:40:03.649Z,99.99
2023-03-21T08:41:03.600Z,99.99
2023-03-21T08:42:03.599Z,99.99
2023-03-21T08:43:03.584Z,99.99
2023-03-21T08:44:03.605Z,99.99
2023-03-21T08:45:03.581Z,99.99
2023-03-21T08:46:03.640Z,99.99
2023-03-21T08:47:03.573Z,99.99
2023-03-21T08:48:03.665Z,99.99
2023-03-21T08:49:03.569Z,99.99
2023-03-21T08:50:03.564Z,99.99
2023-03-21T08:51:03.568Z,99.99
2023-03-21T08:52:03.570Z,99.99
2023-03-21T08:53:03.564Z,99.99
2023-03-21T08:54:03.561Z,99.99
2023-03-21T08:55:03.563Z,99.99
2023-03-21T08:56:03.565Z,99.99
2023-03-21T08:57:03.562Z,99.99
2023-03-21T08:58:03.558Z,99.99
2023-03-21T08:59:03.556Z,99.99
2023-03-21T09:00:03.584Z,99.99
2023-03-21T09:01:03.550Z,99.99
2023-03-21T09:02:03.628Z,99.99
2023-03-21T09:03:03.561Z,99.99
2023-03-21T09:04:03.547Z,99.99
2023-03-21T09:05:03.619Z,99.99
2023-03-21T09:06:03.552Z,99.99
2023-03-21T09:07:03.542Z,99.99
2023-03-21T09:08:03.572Z,99.99
2023-03-21T09:09:03.536Z,99.99
2023-03-21T09:10:19.690Z,99.99
2023-03-21T09:11:03.535Z,99.99
2023-03-21T09:12:03.539Z,99.99
2023-03-21T09:13:03.531Z,99.99
2023-03-21T09:14:03.534Z,99.99
2023-03-21T09:15:03.564Z,99.99
2023-03-21T09:16:03.705Z,99.99
2023-03-21T09:17:03.528Z,99.99
2023-03-21T09:18:03.531Z,99.99
2023-03-21T09:19:03.525Z,99.99
2023-03-21T09:20:03.546Z,99.99
2023-03-21T09:21:03.519Z,99.99
2023-03-21T09:22:03.530Z,99.99
2023-03-21T09:23:03.517Z,99.99
2023-03-21T09:24:03.523Z,99.99
2023-03-21T09:25:04.526Z,99.99
2023-03-21T09:26:03.520Z,99.99
2023-03-21T09:27:03.522Z,99.99
2023-03-21T09:28:03.513Z,99.99
2023-03-21T09:29:03.509Z,99.99
2023-03-21T09:30:03.517Z,99.99
2023-03-21T09:31:03.586Z,99.99
2023-03-21T09:32:03.529Z,99.99
2023-03-21T09:33:03.506Z,99.99
2023-03-21T09:34:03.506Z,99.99
2023-03-21T09:35:03.530Z,99.99
2023-03-21T09:36:03.525Z,99.99
2023-03-21T09:37:03.509Z,99.99
2023-03-21T09:38:03.509Z,99.99
2023-03-21T09:39:03.494Z,99.99
2023-03-21T09:40:03.548Z,99.99
2023-03-21T09:41:03.526Z,99.99
2023-03-21T09:42:03.510Z,99.99
2023-03-21T09:43:03.494Z,99.99
2023-03-21T09:44:03.491Z,99.99
2023-03-21T09:45:03.485Z,99.99
2023-03-21T09:46:04.500Z,99.99
2023-03-21T09:47:03.551Z,99.99
2023-03-21T09:48:03.566Z,99.99
2023-03-21T09:49:03.482Z,99.99
2023-03-21T09:50:13.679Z,99.99
2023-03-21T09:51:03.481Z,99.99
2023-03-21T09:52:03.504Z,99.99
2023-03-21T09:53:03.477Z,99.99
2023-03-21T09:54:03.479Z,99.99
2023-03-21T09:55:03.489Z,99.99
2023-03-21T09:56:03.481Z,99.99
2023-03-21T09:57:03.465Z,99.99
2023-03-21T09:58:03.479Z,99.99
2023-03-21T09:59:03.471Z,99.99
2023-03-21T10:00:03.473Z,99.99
2023-03-21T10:01:03.509Z,99.99
2023-03-21T10:02:03.462Z,99.99
2023-03-21T10:03:03.458Z,99.99
2023-03-21T10:04:03.547Z,99.99
2023-03-21T10:05:03.455Z,99.99
2023-03-21T10:06:03.463Z,99.99
2023-03-21T10:07:03.456Z,99.99
2023-03-21T10:08:03.453Z,99.99
2023-03-21T10:09:03.453Z,99.99
2023-03-21T10:10:03.455Z,99.99
2023-03-21T10:11:03.647Z,99.99
2023-03-21T10:12:03.454Z,99.99
2023-03-21T10:13:03.452Z,99.99
2023-03-21T10:14:03.457Z,99.99
2023-03-21T10:15:03.449Z,99.99
2023-03-21T10:16:03.524Z,99.99
2023-03-21T10:17:03.438Z,99.99
2023-03-21T10:18:03.482Z,99.99
2023-03-21T10:19:03.444Z,99.99
2023-03-21T10:20:03.521Z,99.99
2023-03-21T10:21:03.440Z,99.99
2023-03-21T10:22:04.347Z,99.99
2023-03-21T10:23:03.435Z,99.99
2023-03-21T10:24:03.435Z,99.99
2023-03-21T10:25:03.440Z,99.99
2023-03-21T10:26:03.437Z,99.99
2023-03-21T10:27:03.602Z,99.99
2023-03-21T10:28:03.438Z,99.99
2023-03-21T10:29:03.553Z,99.99
2023-03-21T10:30:03.431Z,99.99
2023-03-21T10:31:03.436Z,99.99
2023-03-21T10:32:03.567Z,99.99
2023-03-21T10:33:03.570Z,99.99
2023-03-21T10:36:39.342Z,99.99
2023-03-21T10:40:05.142Z,99.99
2023-03-21T10:41:05.150Z,99.99
2023-03-21T10:42:05.137Z,99.99
2023-03-21T10:43:05.132Z,99.99
2023-03-21T10:44:05.134Z,99.99
2023-03-21T10:45:05.130Z,99.99
2023-03-21T10:46:05.264Z,99.99
2023-03-21T10:47:05.331Z,99.99
2023-03-21T10:48:05.437Z,99.99
2023-03-21T10:49:05.202Z,99.99
2023-03-21T10:50:08.198Z,99.99
2023-03-21T10:51:05.125Z,99.99
2023-03-21T10:52:05.171Z,99.99
2023-03-21T10:53:05.121Z,99.99
2023-03-21T10:54:05.133Z,99.99
2023-03-21T10:55:05.120Z,99.99
2023-03-21T10:56:05.128Z,99.99
2023-03-21T10:57:05.168Z,99.99
2023-03-21T10:58:05.124Z,99.99
2023-03-21T10:59:05.124Z,99.99
2023-03-21T11:00:05.129Z,99.99
2023-03-21T11:01:05.218Z,99.99
2023-03-21T11:02:05.240Z,99.99
2023-03-21T11:03:05.126Z,99.99
2023-03-21T11:04:05.119Z,99.99
2023-03-21T11:05:05.131Z,99.99
2023-03-21T11:06:05.113Z,99.99
2023-03-21T11:07:05.110Z,99.99
2023-03-21T11:08:05.166Z,99.99
2023-03-21T11:09:05.112Z,99.99
2023-03-21T11:10:05.129Z,99.99
2023-03-21T11:11:05.122Z,99.99
2023-03-21T11:12:05.134Z,99.99
2023-03-21T11:13:05.108Z,99.99
2023-03-21T11:14:05.115Z,99.99
2023-03-21T11:15:05.108Z,99.99
2023-03-21T11:16:05.111Z,99.99
2023-03-21T11:17:05.260Z,99.99
2023-03-21T11:18:05.109Z,99.99
2023-03-21T11:19:05.112Z,99.99
2023-03-21T11:20:05.117Z,99.99
2023-03-21T11:21:05.120Z,99.99
2023-03-21T11:22:05.112Z,99.99
2023-03-21T11:23:05.107Z,99.99
2023-03-21T11:24:05.145Z,99.99
2023-03-21T11:25:05.104Z,99.99
2023-03-21T11:26:05.112Z,99.99
2023-03-21T11:27:05.108Z,99.99
2023-03-21T11:28:05.102Z,99.99
2023-03-21T11:29:05.100Z,99.99
2023-03-21T11:30:05.246Z,99.99
2023-03-21T11:31:05.216Z,99.99
2023-03-21T11:32:05.095Z,99.99
2023-03-21T11:33:05.096Z,99.99
2023-03-21T11:34:05.105Z,99.99
2023-03-21T11:35:05.092Z,99.99
2023-03-21T11:36:05.151Z,99.99
2023-03-21T11:37:05.092Z,99.99
2023-03-21T11:38:05.103Z,99.99
2023-03-21T11:39:05.090Z,99.99
2023-03-21T11:40:05.118Z,99.99
2023-03-21T11:41:05.088Z,99.99
2023-03-21T11:42:05.094Z,99.99
2023-03-21T11:43:05.102Z,99.99
2023-03-21T11:44:05.102Z,99.99
2023-03-21T11:45:05.093Z,99.99
2023-03-21T11:46:05.162Z,99.99
2023-03-21T11:47:05.090Z,99.99
2023-03-21T11:48:05.152Z,99.99
2023-03-21T11:49:05.081Z,99.99
2023-03-21T11:50:05.617Z,99.99
2023-03-21T11:51:05.076Z,99.99
2023-03-21T11:52:05.085Z,99.99
2023-03-21T11:53:05.074Z,99.99
2023-03-21T11:54:05.073Z,99.99
2023-03-21T11:55:05.072Z,99.99
2023-03-21T11:56:05.128Z,99.99
2023-03-21T11:57:05.074Z,99.99
2023-03-21T11:58:13.872Z,99.99
2023-03-21T11:59:05.141Z,99.99
2023-03-21T12:00:05.079Z,99.99
2023-03-21T12:01:05.071Z,99.99
2023-03-21T12:02:05.069Z,99.99
2023-03-21T12:03:05.102Z,99.99
2023-03-21T12:04:05.169Z,99.99
2023-03-21T12:05:05.077Z,99.99
2023-03-21T12:06:05.069Z,99.99
2023-03-21T12:07:05.061Z,99.99
2023-03-21T12:08:05.261Z,99.99
2023-03-21T12:09:05.068Z,99.99
2023-03-21T12:10:05.059Z,99.99
2023-03-21T12:11:05.063Z,99.99
2023-03-21T12:12:05.093Z,99.99
2023-03-21T12:13:05.052Z,99.99
2023-03-21T12:14:05.060Z,99.99
2023-03-21T12:15:05.058Z,99.99
2023-03-21T12:16:05.103Z,99.99
2023-03-21T12:17:05.055Z,99.99
2023-03-21T12:18:05.057Z,99.99
2023-03-21T12:19:05.053Z,99.99
2023-03-21T12:20:05.056Z,99.99
2023-03-21T12:21:05.045Z,99.99
2023-03-21T12:22:05.053Z,99.99
2023-03-21T12:23:05.118Z,99.99
2023-03-21T12:24:05.055Z,99.99
2023-03-21T12:25:05.046Z,99.99
2023-03-21T12:26:05.048Z,99.99
2023-03-21T12:27:05.057Z,99.99
2023-03-21T12:28:05.611Z,99.99
2023-03-21T12:29:05.050Z,99.99
2023-03-21T12:30:05.049Z,99.99
2023-03-21T12:31:05.073Z,99.99
2023-03-21T12:32:05.048Z,99.99
2023-03-21T12:33:05.034Z,99.99
2023-03-21T12:34:05.036Z,99.99
2023-03-21T12:35:05.038Z,99.99
2023-03-21T12:36:05.067Z,99.99
2023-03-21T12:37:05.032Z,99.99
2023-03-21T12:38:05.054Z,99.99
2023-03-21T12:39:05.042Z,99.99
2023-03-21T12:40:05.030Z,99.99
2023-03-21T12:41:05.025Z,99.99
2023-03-21T12:42:05.026Z,99.99
2023-03-21T12:43:05.021Z,99.99
2023-03-21T12:44:05.161Z,99.99
2023-03-21T12:45:11.601Z,99.99
2023-03-21T12:46:05.022Z,99.99
2023-03-21T12:47:05.168Z,99.99
2023-03-21T12:48:05.102Z,99.99
2023-03-21T12:49:05.016Z,99.99
2023-03-21T12:50:05.026Z,99.99
2023-03-21T12:51:05.014Z,99.99
2023-03-21T12:52:05.014Z,99.99
2023-03-21T12:53:05.017Z,99.99
2023-03-21T12:54:05.016Z,99.99
2023-03-21T12:55:05.013Z,99.99
2023-03-21T12:56:05.013Z,99.99
2023-03-21T12:57:05.011Z,99.99
2023-03-21T12:58:05.020Z,99.99